Time;durP1;ratioP1;P1;durP2;ratioP2;P2;SDS_P1;SDS_P2;PMS_P1;PMS_P2;Temp;Humidity;BMP_temperature;BMP_pressure;BME280_temperature;BME280_humidity;BME280_pressure;Samples;Min_cycle;Max_cycle;Signal;HPM_P1;HPM_P2
2021/06/29 00:01:10;;;;;;;9.98;8.77;;;;;;;20.84;63.08;100291.19;5044623;28;20484;-77
2021/06/29 00:03:36;;;;;;;9.80;8.82;;;;;;;20.80;62.96;100276.19;5044070;28;20045;-77
2021/06/29 00:06:02;;;;;;;8.50;7.70;;;;;;;20.77;63.18;100279.91;5046382;28;20029;-77
2021/06/29 00:08:27;;;;;;;8.45;7.35;;;;;;;20.73;62.92;100277.50;5044715;28;20399;-77
2021/06/29 00:10:52;;;;;;;8.20;7.45;;;;;;;20.68;63.85;100279.53;5045397;28;20041;-77
2021/06/29 00:13:20;;;;;;;9.00;8.20;;;;;;;20.58;63.62;100277.31;5046252;28;20458;-78
2021/06/29 00:15:45;;;;;;;10.88;9.18;;;;;;;20.52;64.15;100274.94;5044564;28;20044;-78
2021/06/29 00:18:10;;;;;;;8.93;7.80;;;;;;;20.44;64.45;100278.97;5044411;28;20033;-78
2021/06/29 00:20:36;;;;;;;9.40;8.40;;;;;;;20.43;63.86;100275.38;5046533;28;20048;-77
2021/06/29 00:23:02;;;;;;;9.30;8.50;;;;;;;20.46;64.17;100269.00;5045206;28;20037;-77
2021/06/29 00:25:28;;;;;;;9.25;8.10;;;;;;;20.50;63.45;100271.47;5043385;28;20033;-78
2021/06/29 00:27:53;;;;;;;9.18;8.27;;;;;;;20.51;63.71;100273.22;5044618;28;20385;-77
2021/06/29 00:30:19;;;;;;;8.88;8.05;;;;;;;20.51;63.67;100270.53;5044869;28;20507;-77
2021/06/29 00:32:44;;;;;;;9.40;8.40;;;;;;;20.51;63.63;100273.22;5042394;28;20044;-77
2021/06/29 00:35:11;;;;;;;10.48;9.18;;;;;;;20.46;64.10;100269.91;5044471;28;20033;-77
2021/06/29 00:37:37;;;;;;;9.80;8.80;;;;;;;20.45;63.86;100267.28;5043779;28;20040;-77
2021/06/29 00:40:07;;;;;;;9.63;8.73;;;;;;;20.44;64.15;100277.16;5042456;28;20029;-77
2021/06/29 00:42:33;;;;;;;9.93;9.02;;;;;;;20.47;63.47;100276.97;5044325;28;20058;-78
2021/06/29 00:44:58;;;;;;;8.90;8.00;;;;;;;20.53;63.54;100281.16;5044316;28;20033;-77
2021/06/29 00:47:24;;;;;;;8.93;8.05;;;;;;;20.54;64.08;100278.44;5039489;28;20025;-77
2021/06/29 00:49:49;;;;;;;9.73;8.82;;;;;;;20.53;64.00;100284.69;5043216;28;20485;-77
2021/06/29 00:52:15;;;;;;;10.13;9.07;;;;;;;20.52;63.84;100287.47;5045864;28;20124;-78
2021/06/29 00:54:41;;;;;;;10.88;9.73;;;;;;;20.53;63.98;100291.88;5043440;28;20033;-78
2021/06/29 00:57:09;;;;;;;10.25;9.25;;;;;;;20.53;63.93;100291.88;5044426;28;20072;-77
2021/06/29 00:59:35;;;;;;;9.32;8.43;;;;;;;20.52;64.10;100284.78;5045755;28;20025;-78
2021/06/29 01:02:00;;;;;;;10.57;9.48;;;;;;;20.53;63.77;100289.19;5043079;28;20480;-77
2021/06/29 01:04:25;;;;;;;10.57;9.57;;;;;;;20.57;63.94;100282.78;5043170;28;20048;-78
2021/06/29 01:06:52;;;;;;;11.20;10.10;;;;;;;20.57;63.78;100280.97;5044105;28;20041;-77
2021/06/29 01:09:18;;;;;;;9.75;8.85;;;;;;;20.47;64.20;100285.03;5043930;28;20044;-77
2021/06/29 01:11:44;;;;;;;9.35;8.45;;;;;;;20.45;64.48;100281.53;5043700;28;20044;-77
2021/06/29 01:14:14;;;;;;;10.13;9.23;;;;;;;20.46;64.76;100285.97;5020953;28;20037;-77
2021/06/29 01:16:41;;;;;;;11.20;9.38;;;;;;;20.45;64.10;100278.00;5045274;28;20040;-78
2021/06/29 01:19:07;;;;;;;10.25;9.35;;;;;;;20.46;64.23;100285.97;5042778;28;20033;-77
2021/06/29 01:21:39;;;;;;;10.80;9.70;;;;;;;20.46;63.92;100277.94;5043456;28;20033;-77
2021/06/29 01:24:10;;;;;;;10.82;9.82;;;;;;;20.41;64.31;100282.66;5044851;28;20037;-77
2021/06/29 01:26:41;;;;;;;10.98;9.90;;;;;;;20.34;64.39;100291.97;5042569;28;20098;-77
2021/06/29 01:29:06;;;;;;;10.43;9.52;;;;;;;20.27;64.67;100303.91;5041152;28;20042;-77
2021/06/29 01:31:34;;;;;;;12.13;11.02;;;;;;;20.26;64.43;100302.19;5043335;28;20025;-77
2021/06/29 01:34:00;;;;;;;13.32;12.13;;;;;;;20.23;64.63;100294.31;5037190;28;20040;-77
2021/06/29 01:36:33;;;;;;;13.20;12.00;;;;;;;20.19;64.96;100292.72;5043860;28;20041;-77
2021/06/29 01:38:59;;;;;;;14.27;12.80;;;;;;;20.17;64.96;100297.28;5042852;28;20057;-77
2021/06/29 01:41:25;;;;;;;13.88;12.60;;;;;;;20.08;65.21;100280.72;5041493;28;20029;-77
2021/06/29 01:43:54;;;;;;;13.05;11.85;;;;;;;20.04;65.66;100280.94;5041222;28;20108;-77
2021/06/29 01:46:22;;;;;;;11.52;10.45;;;;;;;19.93;66.16;100281.47;5025897;28;20040;-77
2021/06/29 01:48:52;;;;;;;12.68;11.38;;;;;;;19.81;66.38;100288.31;5042590;28;20045;-77
2021/06/29 01:51:19;;;;;;;13.48;12.25;;;;;;;19.80;66.57;100285.69;5041289;28;20029;-77
2021/06/29 01:53:47;;;;;;;14.00;12.70;;;;;;;19.82;66.37;100290.03;5041673;28;20033;-77
2021/06/29 01:56:16;;;;;;;13.15;11.95;;;;;;;19.85;65.63;100305.94;5043603;28;20431;-77
2021/06/29 01:58:43;;;;;;;14.85;13.38;;;;;;;19.84;65.92;100298.00;5041990;28;20026;-77
2021/06/29 02:01:09;;;;;;;12.48;11.30;;;;;;;19.83;65.39;100304.28;5041533;28;20056;-77
2021/06/29 02:03:34;;;;;;;13.73;12.25;;;;;;;19.84;65.71;100308.72;5048470;28;20058;-77
2021/06/29 02:06:00;;;;;;;14.43;13.10;;;;;;;19.82;66.04;100311.44;5045757;28;20144;-77
2021/06/29 02:08:25;;;;;;;15.30;13.80;;;;;;;19.72;67.68;100320.00;5044638;28;20044;-77
2021/06/29 02:10:51;;;;;;;13.02;11.75;;;;;;;19.62;67.63;100314.16;5048057;28;20115;-77
2021/06/29 02:13:16;;;;;;;13.23;11.70;;;;;;;19.45;68.64;100320.31;5046832;28;20086;-77
2021/06/29 02:15:42;;;;;;;11.82;10.15;;;;;;;19.37;68.64;100322.50;5042191;28;20060;-77
2021/06/29 02:18:07;;;;;;;11.77;10.52;;;;;;;19.34;68.32;100334.19;5042109;28;20132;-77
2021/06/29 02:20:33;;;;;;;11.27;10.18;;;;;;;19.28;69.19;100337.13;5041060;28;20061;-77
2021/06/29 02:22:58;;;;;;;12.15;10.93;;;;;;;19.23;69.51;100337.38;5039616;28;20048;-77
2021/06/29 02:25:24;;;;;;;13.82;11.10;;;;;;;19.25;69.22;100343.50;5041489;28;20076;-77
2021/06/29 02:27:49;;;;;;;11.70;10.57;;;;;;;19.25;69.32;100343.50;5041603;28;20040;-77
2021/06/29 02:30:15;;;;;;;12.77;11.52;;;;;;;19.23;69.16;100340.03;5040411;28;20095;-77
2021/06/29 02:32:40;;;;;;;12.25;11.15;;;;;;;19.25;69.47;100337.28;5043023;28;20036;-77
2021/06/29 02:35:06;;;;;;;12.18;11.07;;;;;;;19.25;69.81;100327.44;5041950;28;20502;-77
2021/06/29 02:37:31;;;;;;;13.75;12.35;;;;;;;19.12;71.01;100336.94;5039197;28;20029;-77
2021/06/29 02:39:57;;;;;;;12.43;11.23;;;;;;;19.12;70.57;100331.59;5042573;28;20052;-77
2021/06/29 02:42:22;;;;;;;13.25;11.95;;;;;;;19.20;69.96;100332.16;5042254;28;20056;-77
2021/06/29 02:44:48;;;;;;;13.57;12.25;;;;;;;19.08;71.57;100332.69;5039011;28;20042;-77
2021/06/29 02:47:14;;;;;;;12.23;11.10;;;;;;;19.16;70.80;100333.22;5042516;28;20024;-77
2021/06/29 02:49:40;;;;;;;11.57;10.38;;;;;;;19.24;70.36;100331.06;5042572;28;20044;-78
2021/06/29 02:52:06;;;;;;;12.07;10.90;;;;;;;19.36;69.70;100328.75;5040523;28;20041;-77
2021/06/29 02:54:32;;;;;;;12.88;11.50;;;;;;;19.46;69.50;100327.41;5041814;28;20036;-77
2021/06/29 02:56:58;;;;;;;14.50;13.13;;;;;;;19.50;69.11;100323.66;5041407;28;20068;-77
2021/06/29 02:59:24;;;;;;;10.88;9.77;;;;;;;19.51;69.38;100322.69;5039105;28;20080;-77
2021/06/29 03:01:49;;;;;;;12.50;11.13;;;;;;;19.52;69.26;100321.78;5041812;28;20037;-77
2021/06/29 03:04:14;;;;;;;11.57;10.27;;;;;;;19.52;69.32;100313.75;5041415;28;20079;-77
2021/06/29 03:06:40;;;;;;;16.38;14.75;;;;;;;19.60;69.94;100321.44;5040702;28;20073;-77
2021/06/29 03:09:07;;;;;;;16.55;14.95;;;;;;;19.65;69.32;100322.94;5041778;28;20065;-77
2021/06/29 03:11:32;;;;;;;14.50;13.20;;;;;;;19.73;69.27;100337.78;5043202;28;20120;-77
2021/06/29 03:13:58;;;;;;;14.50;13.20;;;;;;;19.82;68.88;100323.97;5041330;28;20072;-77
2021/06/29 03:16:23;;;;;;;13.10;11.82;;;;;;;19.91;68.54;100320.84;5041410;28;20045;-78
2021/06/29 03:18:49;;;;;;;13.95;12.43;;;;;;;19.98;68.21;100322.28;5042920;28;20127;-77
2021/06/29 03:21:15;;;;;;;18.08;16.38;;;;;;;20.04;68.41;100313.09;5041591;28;20407;-77
2021/06/29 03:23:41;;;;;;;15.02;13.45;;;;;;;20.06;68.71;100308.53;5040096;28;20033;-78
2021/06/29 03:26:06;;;;;;;15.65;14.00;;;;;;;20.03;67.96;100304.19;5039007;28;20072;-78
2021/06/29 03:28:32;;;;;;;13.88;12.57;;;;;;;20.01;68.78;100300.72;5038141;28;20033;-77
2021/06/29 03:30:57;;;;;;;13.15;11.85;;;;;;;20.07;68.28;100289.72;5039412;28;20407;-78
2021/06/29 03:33:22;;;;;;;12.38;11.18;;;;;;;20.16;68.19;100287.50;5042950;28;20049;-77
2021/06/29 03:35:48;;;;;;;14.02;12.65;;;;;;;20.25;67.48;100290.63;5040967;28;20048;-78
2021/06/29 03:38:13;;;;;;;11.55;10.45;;;;;;;20.26;68.56;100292.34;5042645;28;20041;-77
2021/06/29 03:40:38;;;;;;;12.82;11.63;;;;;;;20.24;68.50;100304.06;5047166;28;20028;-77
2021/06/29 03:43:04;;;;;;;11.27;10.20;;;;;;;20.25;68.54;100297.75;5044925;28;20037;-77
2021/06/29 03:45:29;;;;;;;13.07;11.20;;;;;;;20.30;68.03;100287.69;5044533;28;20065;-77
2021/06/29 03:47:55;;;;;;;12.35;11.07;;;;;;;20.40;67.82;100294.31;5045744;28;20450;-77
2021/06/29 03:50:20;;;;;;;13.05;11.77;;;;;;;20.47;67.99;100285.03;5044683;28;20056;-77
2021/06/29 03:52:46;;;;;;;13.15;11.70;;;;;;;20.44;67.99;100290.56;5044400;28;20496;-77
2021/06/29 03:55:11;;;;;;;12.10;10.90;;;;;;;20.44;68.39;100295.91;5040801;28;20483;-78
2021/06/29 03:57:37;;;;;;;13.23;11.93;;;;;;;20.45;68.33;100299.44;5045682;28;20063;-77
2021/06/29 04:00:08;;;;;;;13.15;11.85;;;;;;;20.56;68.06;100292.63;5045617;28;20037;-77
2021/06/29 04:02:33;;;;;;;11.77;10.67;;;;;;;20.66;67.58;100295.69;5044751;28;20061;-78
2021/06/29 04:04:59;;;;;;;12.02;10.93;;;;;;;20.78;67.05;100291.53;5044718;28;20076;-77
2021/06/29 04:07:27;;;;;;;12.32;10.57;;;;;;;20.87;66.57;100288.34;5047033;28;20035;-77
2021/06/29 04:09:53;;;;;;;12.13;10.90;;;;;;;20.96;67.03;100292.38;5045854;28;20047;-78
2021/06/29 04:12:20;;;;;;;13.55;12.15;;;;;;;21.01;66.38;100296.53;5043121;28;20442;-78
2021/06/29 04:14:45;;;;;;;12.75;11.50;;;;;;;21.04;66.87;100291.94;5044968;28;20116;-78
2021/06/29 04:17:10;;;;;;;12.63;11.35;;;;;;;21.06;67.06;100280.19;5046237;28;20068;-78
2021/06/29 04:19:36;;;;;;;12.73;11.52;;;;;;;21.12;66.85;100285.22;5044799;28;20058;-78
2021/06/29 04:22:02;;;;;;;12.68;11.35;;;;;;;21.18;66.92;100294.75;5046066;28;20037;-78
2021/06/29 04:24:27;;;;;;;12.05;10.85;;;;;;;21.18;67.47;100284.03;5028501;28;20140;-78
2021/06/29 04:26:53;;;;;;;14.48;13.07;;;;;;;21.23;66.92;100290.88;5044012;28;20411;-78
2021/06/29 04:29:18;;;;;;;13.35;12.05;;;;;;;21.33;66.76;100283.19;5045831;28;20406;-78
2021/06/29 04:31:43;;;;;;;15.57;14.00;;;;;;;21.37;66.84;100284.75;5046634;28;20407;-77
2021/06/29 04:34:08;;;;;;;16.55;14.02;;;;;;;21.39;67.29;100287.41;5043675;28;20538;-77
2021/06/29 04:36:34;;;;;;;13.25;11.95;;;;;;;21.49;66.86;100291.31;5044787;28;20036;-78
2021/06/29 04:39:00;;;;;;;14.85;12.05;;;;;;;21.56;67.17;100287.34;5042792;28;20087;-78
2021/06/29 04:41:25;;;;;;;14.63;12.90;;;;;;;21.60;67.26;100282.66;5046557;28;20033;-77
2021/06/29 04:43:50;;;;;;;12.35;10.88;;;;;;;21.65;67.00;100289.50;5043853;28;20017;-78
2021/06/29 04:46:16;;;;;;;12.15;10.45;;;;;;;21.71;67.20;100287.41;5044031;28;20053;-78
2021/06/29 04:48:41;;;;;;;16.35;12.32;;;;;;;21.76;67.20;100282.66;5043504;28;20029;-78
2021/06/29 04:51:08;;;;;;;15.82;13.63;;;;;;;21.87;67.19;100288.28;5045213;28;20478;-78
2021/06/29 04:53:33;;;;;;;15.15;12.07;;;;;;;21.92;67.11;100286.19;5042817;28;20031;-78
2021/06/29 04:55:59;;;;;;;12.07;10.55;;;;;;;21.99;66.76;100286.72;5044880;28;20459;-78
2021/06/29 04:58:24;;;;;;;13.10;11.55;;;;;;;22.05;66.77;100281.00;5044526;28;20459;-78
2021/06/29 05:00:50;;;;;;;13.05;10.50;;;;;;;22.15;66.67;100282.19;5043729;28;20403;-78
2021/06/29 05:03:17;;;;;;;15.23;13.60;;;;;;;22.29;66.59;100279.56;5045472;28;20064;-78
2021/06/29 05:05:43;;;;;;;16.38;10.52;;;;;;;22.50;65.98;100281.97;5045225;28;20033;-78
2021/06/29 05:08:11;;;;;;;10.40;8.80;;;;;;;22.63;65.03;100288.34;5042582;28;20040;-78
2021/06/29 05:10:36;;;;;;;12.45;10.82;;;;;;;22.78;65.05;100291.06;5052217;22;20034;-73
2021/06/29 05:13:03;;;;;;;14.55;9.52;;;;;;;22.88;64.71;100289.56;5022848;28;20034;-73
2021/06/29 05:15:28;;;;;;;9.85;8.50;;;;;;;22.93;64.96;100293.69;5022374;28;20029;-73
2021/06/29 05:17:53;;;;;;;15.80;9.70;;;;;;;22.94;64.87;100287.34;5022046;28;20113;-73
2021/06/29 05:20:19;;;;;;;13.10;8.10;;;;;;;22.94;64.18;100292.72;5023240;28;20069;-73
2021/06/29 05:22:44;;;;;;;12.85;9.10;;;;;;;23.02;64.20;100281.50;5021149;28;20447;-73
2021/06/29 05:25:10;;;;;;;9.23;6.88;;;;;;;23.08;63.34;100281.16;5023899;28;20040;-73
2021/06/29 05:27:40;;;;;;;10.95;6.97;;;;;;;23.11;62.84;100280.09;5020484;28;20034;-73
2021/06/29 05:30:09;;;;;;;8.27;5.15;;;;;;;23.10;62.72;100281.91;5020559;28;20038;-73
2021/06/29 05:32:35;;;;;;;9.57;6.68;;;;;;;23.11;62.87;100286.34;5023924;28;20041;-73
2021/06/29 05:35:01;;;;;;;9.45;5.63;;;;;;;23.17;62.40;100287.78;5019936;28;20104;-73
2021/06/29 05:37:26;;;;;;;7.72;5.70;;;;;;;23.21;62.37;100291.13;5020443;28;20120;-73
2021/06/29 05:39:51;;;;;;;8.38;6.18;;;;;;;23.12;62.65;100284.50;5002436;28;20034;-73
2021/06/29 05:42:17;;;;;;;7.35;4.88;;;;;;;23.17;62.89;100288.63;5022918;28;20049;-73
2021/06/29 05:44:42;;;;;;;8.95;4.78;;;;;;;23.15;62.77;100284.31;5021338;28;20129;-73
2021/06/29 05:47:09;;;;;;;8.25;4.25;;;;;;;23.09;62.33;100287.41;5022011;28;20046;-73
2021/06/29 05:49:35;;;;;;;9.50;5.22;;;;;;;23.10;62.32;100276.50;5021989;28;20543;-73
2021/06/29 05:52:00;;;;;;;9.07;4.18;;;;;;;23.10;62.09;100287.28;5021392;28;20069;-73
2021/06/29 05:54:26;;;;;;;7.60;4.28;;;;;;;23.15;62.12;100279.78;5022415;28;20107;-73
2021/06/29 05:56:51;;;;;;;6.43;4.28;;;;;;;23.21;61.43;100277.69;5020629;28;20115;-73
2021/06/29 05:59:17;;;;;;;7.18;3.85;;;;;;;23.08;61.39;100275.78;5023429;28;20128;-73
2021/06/29 06:01:42;;;;;;;5.07;3.80;;;;;;;23.10;61.07;100278.34;5019028;28;20033;-73
2021/06/29 06:04:07;;;;;;;6.53;4.40;;;;;;;23.09;61.46;100280.19;5002150;28;20037;-74
2021/06/29 06:06:33;;;;;;;9.63;3.35;;;;;;;23.20;60.49;100271.44;5022745;28;20059;-73
2021/06/29 06:08:58;;;;;;;5.80;3.65;;;;;;;23.23;60.71;100271.22;5020743;28;20095;-73
2021/06/29 06:11:23;;;;;;;8.38;3.72;;;;;;;23.14;61.74;100270.00;5021805;28;20041;-73
2021/06/29 06:13:49;;;;;;;10.50;3.65;;;;;;;23.16;61.13;100268.09;5021555;28;20167;-73
2021/06/29 06:16:14;;;;;;;6.85;3.72;;;;;;;23.14;61.23;100259.22;5020946;28;20123;-73
2021/06/29 06:18:42;;;;;;;8.05;3.08;;;;;;;23.22;61.13;100269.50;5022168;28;20054;-73
2021/06/29 06:21:08;;;;;;;8.93;3.63;;;;;;;23.19;61.19;100261.63;5020958;28;20037;-73
2021/06/29 06:23:33;;;;;;;8.38;2.70;;;;;;;23.24;60.92;100254.13;5022725;28;20088;-73
2021/06/29 06:25:58;;;;;;;5.72;2.72;;;;;;;23.26;60.75;100254.88;5019886;28;20550;-73
2021/06/29 06:28:24;;;;;;;6.30;2.60;;;;;;;23.32;60.78;100262.59;5023200;28;20037;-73
2021/06/29 06:30:49;;;;;;;5.05;3.08;;;;;;;23.38;60.63;100254.13;5001956;28;20041;-73
2021/06/29 06:33:15;;;;;;;4.68;2.40;;;;;;;23.43;60.38;100256.53;5022636;28;20385;-73
2021/06/29 06:35:40;;;;;;;7.15;2.88;;;;;;;23.59;60.26;100262.63;5020134;28;20097;-73
2021/06/29 06:38:05;;;;;;;7.70;3.10;;;;;;;23.67;60.04;100258.59;5021885;28;20045;-73
2021/06/29 06:40:31;;;;;;;4.90;2.95;;;;;;;23.76;59.80;100258.91;5021120;28;20022;-73
2021/06/29 06:42:56;;;;;;;7.70;3.30;;;;;;;23.83;59.25;100256.66;5020999;28;20060;-73
2021/06/29 06:45:24;;;;;;;4.63;2.30;;;;;;;24.11;58.49;100258.38;5021632;28;20553;-73
2021/06/29 06:47:53;;;;;;;7.50;3.75;;;;;;;24.17;58.28;100257.09;5020474;28;20038;-73
2021/06/29 06:50:19;;;;;;;5.15;3.00;;;;;;;24.44;57.45;100254.38;5021708;28;20044;-74
2021/06/29 06:52:45;;;;;;;6.57;2.63;;;;;;;24.55;56.78;100253.66;5020326;28;20038;-73
2021/06/29 06:55:11;;;;;;;5.75;2.53;;;;;;;24.61;56.90;100255.94;5022119;28;20095;-73
2021/06/29 06:57:37;;;;;;;4.20;2.03;;;;;;;24.58;56.80;100250.78;5019569;28;20052;-73
2021/06/29 07:00:05;;;;;;;7.80;2.90;;;;;;;24.58;55.75;100256.16;5022910;28;20555;-73
2021/06/29 07:02:30;;;;;;;3.88;2.78;;;;;;;24.80;55.64;100256.38;5019217;28;20042;-73
2021/06/29 07:04:56;;;;;;;5.13;2.60;;;;;;;24.98;55.79;100251.53;5022616;28;20121;-73
2021/06/29 07:07:21;;;;;;;6.53;3.45;;;;;;;24.95;55.86;100261.69;5019516;28;20054;-73
2021/06/29 07:09:46;;;;;;;4.85;2.55;;;;;;;25.18;54.91;100255.56;5021920;28;20128;-73
2021/06/29 07:12:12;;;;;;;5.05;3.33;;;;;;;24.96;54.97;100255.31;5020718;28;20129;-73
2021/06/29 07:14:37;;;;;;;7.95;3.33;;;;;;;25.15;54.54;100261.13;5024826;28;20112;-73
2021/06/29 07:17:02;;;;;;;2.67;1.50;;;;;;;25.23;53.52;100253.41;5024950;28;20047;-73
2021/06/29 07:19:28;;;;;;;5.13;2.05;;;;;;;25.17;53.64;100258.34;5024090;28;20034;-73
2021/06/29 07:21:53;;;;;;;4.72;1.90;;;;;;;25.45;53.31;100249.13;5025609;28;20033;-73
2021/06/29 07:24:18;;;;;;;3.08;1.48;;;;;;;25.43;52.69;100249.25;5022992;28;20041;-73
2021/06/29 07:26:44;;;;;;;4.70;1.65;;;;;;;25.43;52.71;100242.97;5026428;28;20091;-73
2021/06/29 07:29:09;;;;;;;4.90;2.38;;;;;;;25.45;53.11;100247.28;5022810;28;20030;-73
2021/06/29 07:31:35;;;;;;;2.63;1.63;;;;;;;25.48;52.68;100247.06;5025847;28;20030;-73
2021/06/29 07:34:00;;;;;;;5.10;1.92;;;;;;;25.48;52.74;100246.22;5023334;28;20092;-73
2021/06/29 07:36:26;;;;;;;3.45;1.52;;;;;;;25.26;52.71;100247.78;5024851;28;20092;-73
2021/06/29 07:38:54;;;;;;;3.25;1.67;;;;;;;25.11;53.31;100243.44;5024005;28;20048;-73
2021/06/29 07:41:19;;;;;;;4.38;2.40;;;;;;;25.12;53.09;100246.00;5024552;28;20063;-73
2021/06/29 07:43:45;;;;;;;4.43;1.98;;;;;;;25.02;53.21;100252.16;5024567;28;20025;-73
2021/06/29 07:46:10;;;;;;;3.80;1.50;;;;;;;24.96;53.81;100256.16;5023683;28;20550;-73
2021/06/29 07:48:35;;;;;;;3.70;2.20;;;;;;;24.88;53.37;100245.91;5025094;28;20488;-74
2021/06/29 07:51:01;;;;;;;2.65;1.63;;;;;;;24.89;53.43;100250.34;5022755;28;20050;-73
2021/06/29 07:53:26;;;;;;;4.10;1.90;;;;;;;24.95;53.83;100240.09;5025855;28;20025;-73
2021/06/29 07:55:52;;;;;;;5.85;1.80;;;;;;;25.02;53.81;100254.88;5022165;28;20476;-74
2021/06/29 07:58:18;;;;;;;3.05;1.73;;;;;;;25.15;53.13;100255.72;5025732;28;20040;-73
2021/06/29 08:00:45;;;;;;;6.03;2.80;;;;;;;25.22;53.21;100251.66;5022539;28;20423;-73
2021/06/29 08:03:10;;;;;;;2.10;1.30;;;;;;;25.28;52.68;100250.34;5025049;28;20041;-73
2021/06/29 08:05:36;;;;;;;2.50;1.50;;;;;;;25.36;52.71;100256.94;5022719;28;20120;-74
2021/06/29 08:08:01;;;;;;;3.78;1.73;;;;;;;25.35;52.72;100255.19;5024196;28;20049;-74
2021/06/29 08:10:27;;;;;;;3.60;1.77;;;;;;;25.24;53.13;100255.13;5023674;28;20037;-73
2021/06/29 08:12:53;;;;;;;4.03;1.60;;;;;;;25.47;52.23;100250.75;5023387;28;20156;-73
2021/06/29 08:15:19;;;;;;;3.17;1.88;;;;;;;25.72;52.25;100257.91;5027930;28;20407;-74
2021/06/29 08:17:46;;;;;;;8.63;2.20;;;;;;;26.05;51.00;100251.00;5030452;28;20035;-73
2021/06/29 08:20:16;;;;;;;4.90;2.70;;;;;;;26.19;50.83;100253.53;5025818;28;20746;-74
2021/06/29 08:22:42;;;;;;;6.15;1.60;;;;;;;26.28;50.44;100254.69;5022714;28;20091;-73
2021/06/29 08:25:08;;;;;;;3.83;1.95;;;;;;;26.29;50.56;100253.69;5023590;28;20033;-74
2021/06/29 08:27:34;;;;;;;5.45;2.10;;;;;;;26.64;50.13;100252.84;5021760;28;20033;-73
2021/06/29 08:29:59;;;;;;;3.95;2.40;;;;;;;26.86;49.61;100262.88;5028735;28;20454;-74
2021/06/29 08:32:25;;;;;;;3.97;2.03;;;;;;;26.96;48.31;100272.00;5014113;28;20063;-74
2021/06/29 08:34:51;;;;;;;6.97;2.60;;;;;;;27.14;48.87;100266.94;5024519;28;20040;-73
2021/06/29 08:37:17;;;;;;;4.75;2.40;;;;;;;27.19;48.37;100270.19;5022058;28;20034;-73
2021/06/29 08:39:43;;;;;;;5.20;1.80;;;;;;;27.40;47.71;100266.75;5024211;28;20439;-74
2021/06/29 08:42:08;;;;;;;6.53;2.85;;;;;;;27.40;48.00;100264.88;5022695;28;20040;-73
2021/06/29 08:44:34;;;;;;;4.22;3.08;;;;;;;27.59;47.45;100266.09;5022952;28;20431;-74
2021/06/29 08:46:59;;;;;;;3.13;2.20;;;;;;;27.75;46.78;100264.75;5023460;28;20029;-73
2021/06/29 08:49:24;;;;;;;5.38;2.20;;;;;;;27.90;46.93;100270.78;5022310;28;20601;-74
2021/06/29 08:51:51;;;;;;;4.55;2.67;;;;;;;27.77;47.44;100275.44;5024194;28;20452;-74
2021/06/29 08:54:19;;;;;;;5.15;2.20;;;;;;;27.62;48.25;100276.72;5021428;28;20416;-74
2021/06/29 08:56:45;;;;;;;3.42;1.95;;;;;;;27.67;47.00;100274.50;5024310;28;20036;-74
2021/06/29 08:59:10;;;;;;;4.60;2.97;;;;;;;27.72;47.35;100277.69;5016572;28;20385;-73
2021/06/29 09:01:36;;;;;;;3.75;2.40;;;;;;;27.70;47.73;100280.53;5021015;28;20407;-73
2021/06/29 09:04:01;;;;;;;6.07;2.75;;;;;;;27.53;48.18;100278.31;5024381;28;20053;-73
2021/06/29 09:06:33;;;;;;;7.03;4.07;;;;;;;27.24;48.57;100277.94;5021353;28;20049;-73
2021/06/29 09:09:27;;;;;;;4.63;2.60;;;;;;;27.13;48.62;100275.22;5024439;28;20087;-73
2021/06/29 09:11:53;;;;;;;4.85;3.10;;;;;;;27.13;48.91;100270.66;5023633;28;20041;-73
2021/06/29 09:14:19;;;;;;;4.95;2.80;;;;;;;27.20;49.22;100265.66;5021559;28;20040;-73
2021/06/29 09:16:46;;;;;;;6.15;3.22;;;;;;;27.25;48.59;100263.44;5025163;28;20129;-74
2021/06/29 09:19:11;;;;;;;4.47;2.58;;;;;;;27.21;48.94;100261.94;5027061;28;20044;-73
2021/06/29 09:21:37;;;;;;;2.90;1.77;;;;;;;27.35;48.67;100261.69;5001336;28;20042;-73
2021/06/29 09:24:04;;;;;;;3.72;2.45;;;;;;;27.19;48.84;100258.50;5021859;28;20034;-74
2021/06/29 09:26:30;;;;;;;4.00;2.40;;;;;;;27.23;48.21;100260.00;5022669;28;20076;-73
2021/06/29 09:28:58;;;;;;;5.28;2.50;;;;;;;27.15;49.38;100265.13;5021364;28;20072;-73
2021/06/29 09:31:27;;;;;;;5.70;2.33;;;;;;;26.92;49.34;100265.09;5023204;28;20029;-73
2021/06/29 09:33:53;;;;;;;3.70;2.13;;;;;;;26.98;49.82;100261.03;5021376;28;20046;-73
2021/06/29 09:36:24;;;;;;;5.57;2.47;;;;;;;27.00;49.51;100259.06;5022830;28;20048;-73
2021/06/29 09:38:51;;;;;;;4.55;2.60;;;;;;;26.81;50.53;100265.09;5021679;28;20060;-73
2021/06/29 09:41:20;;;;;;;4.57;3.10;;;;;;;27.11;49.99;100246.38;5023043;28;20033;-73
2021/06/29 09:43:49;;;;;;;3.70;2.10;;;;;;;27.11;49.32;100251.81;5021322;28;20497;-73
2021/06/29 09:46:16;;;;;;;7.22;4.00;;;;;;;26.93;49.61;100242.44;5022899;28;20029;-73
2021/06/29 09:48:56;;;;;;;3.78;2.38;;;;;;;26.95;49.54;100245.88;5020970;28;20038;-73
2021/06/29 09:51:29;;;;;;;4.57;2.95;;;;;;;26.64;50.31;100248.28;5021251;28;20041;-73
2021/06/29 09:54:06;;;;;;;4.30;2.88;;;;;;;26.74;50.07;100253.00;5023262;28;20029;-73
2021/06/29 09:56:38;;;;;;;7.60;3.10;;;;;;;26.73;50.03;100232.34;5020180;28;20064;-73
2021/06/29 09:59:10;;;;;;;5.35;3.17;;;;;;;27.02;49.91;100230.88;5022852;28;20099;-73
2021/06/29 10:01:35;;;;;;;;;;;;;;;27.15;49.36;100236.19;5021500;28;20092;-73
2021/06/29 10:04:05;;;;;;;7.40;2.53;;;;;;;27.14;48.98;100222.75;5022609;28;19921;-73
2021/06/29 10:06:32;;;;;;;4.45;2.95;;;;;;;27.34;48.27;100222.03;5020691;28;20118;-73
2021/06/29 10:09:08;;;;;;;9.68;3.70;;;;;;;27.68;48.60;100208.44;5022606;28;20037;-74
2021/06/29 10:11:38;;;;;;;3.63;2.38;;;;;;;27.93;48.14;100197.31;5021505;28;20521;-73
2021/06/29 10:14:05;;;;;;;4.38;2.30;;;;;;;27.52;47.04;100198.84;5021147;28;20472;-73
2021/06/29 10:16:40;;;;;;;5.00;2.53;;;;;;;27.38;48.04;100193.72;5021458;28;20080;-73
2021/06/29 10:21:43;;;;;;;3.00;2.17;;;;;;;27.62;48.49;100195.41;5023020;28;20488;-74
2021/06/29 10:24:12;;;;;;;3.30;1.85;;;;;;;27.37;47.89;100191.97;5019671;28;20053;-74
2021/06/29 10:26:39;;;;;;;5.53;4.20;;;;;;;27.15;48.97;100192.00;5019456;28;20049;-74
2021/06/29 10:29:08;;;;;;;4.50;2.50;;;;;;;27.36;48.07;100187.56;5019589;28;20084;-73
2021/06/29 10:31:36;;;;;;;4.80;3.20;;;;;;;27.31;48.65;100187.06;5019466;28;20044;-73
2021/06/29 10:34:07;;;;;;;6.82;4.47;;;;;;;27.29;48.30;100176.34;5019370;28;20038;-73
2021/06/29 10:36:34;;;;;;;5.22;2.88;;;;;;;27.37;47.68;100170.31;5019363;28;20038;-73
2021/06/29 10:38:59;;;;;;;5.68;2.90;;;;;;;27.40;47.83;100164.63;5023074;28;20025;-73
2021/06/29 10:41:33;;;;;;;3.92;2.83;;;;;;;27.41;47.34;100169.06;5019420;28;20069;-73
2021/06/29 10:44:00;;;;;;;6.28;3.53;;;;;;;27.66;47.40;100173.31;5019689;28;20045;-74
2021/06/29 10:46:28;;;;;;;3.97;3.08;;;;;;;27.87;47.18;100180.66;5022949;28;20435;-73
2021/06/29 10:48:57;;;;;;;4.25;3.05;;;;;;;27.89;46.68;100182.25;5022614;28;20775;-73
2021/06/29 10:51:38;;;;;;;5.13;3.63;;;;;;;27.90;46.38;100178.59;5026992;28;20037;-74
2021/06/29 10:54:04;;;;;;;8.00;3.67;;;;;;;28.05;46.64;100176.41;5031519;28;20037;-73
2021/06/29 10:56:55;;;;;;;6.00;4.10;;;;;;;28.12;47.02;100174.03;5024819;28;20381;-74
2021/06/29 10:59:31;;;;;;;4.80;2.47;;;;;;;27.95;46.20;100173.59;5024131;28;20029;-74
2021/06/29 11:01:57;;;;;;;3.47;2.50;;;;;;;28.03;47.35;100167.53;5024974;28;20436;-73
2021/06/29 11:04:55;;;;;;;4.22;2.97;;;;;;;27.88;47.09;100164.28;5024500;28;20037;-74
2021/06/29 11:07:35;;;;;;;3.75;2.60;;;;;;;27.85;47.30;100179.94;5024722;28;20056;-73
2021/06/29 11:10:28;;;;;;;5.15;3.13;;;;;;;27.99;46.68;100171.50;5023649;28;20562;-73
2021/06/29 11:12:57;;;;;;;4.93;3.00;;;;;;;28.43;46.11;100183.13;5013517;28;20063;-73
2021/06/29 11:15:46;;;;;;;5.90;4.25;;;;;;;28.82;45.06;100176.09;5051718;23;20049;-79
2021/06/29 11:18:13;;;;;;;4.63;3.90;;;;;;;29.33;44.68;100181.59;5047182;28;20040;-79
2021/06/29 11:20:40;;;;;;;6.22;4.10;;;;;;;29.17;44.49;100174.81;5044756;28;20044;-79